createdAt,value
2018-02-15T00:01:35.813Z,101761.17
2018-02-15T00:04:01.578Z,101763.05
2018-02-15T00:06:27.344Z,101750.03
2018-02-15T00:08:53.097Z,101751.65
2018-02-15T00:11:19.101Z,101748.59
2018-02-15T00:13:45.365Z,101751.29
2018-02-15T00:16:11.152Z,101748.41
2018-02-15T00:18:37.333Z,101749.34
2018-02-15T00:21:03.127Z,101751.38
2018-02-15T00:23:29.546Z,101738.77
2018-02-15T00:25:55.400Z,101736.03
2018-02-15T00:28:21.657Z,101734.01
2018-02-15T00:30:47.440Z,101733.03
2018-02-15T00:33:13.187Z,101728.39
2018-02-15T00:35:39.630Z,101725.84
2018-02-15T00:38:05.391Z,101721.72
2018-02-15T00:40:31.151Z,101726.03
2018-02-15T00:42:57.110Z,101717.31
2018-02-15T00:45:22.932Z,101715.02
2018-02-15T00:47:48.720Z,101708.06
2018-02-15T00:50:14.476Z,101704.44
2018-02-15T00:52:40.231Z,101700.54
2018-02-15T00:55:05.981Z,101693.58
2018-02-15T00:57:31.751Z,101696.09
2018-02-15T00:59:57.506Z,101697.31
2018-02-15T01:02:23.267Z,101695.61
2018-02-15T01:04:49.035Z,101696.91
2018-02-15T01:07:14.795Z,101692.20
2018-02-15T01:09:40.555Z,101681.30
2018-02-15T01:12:06.311Z,101670.88
2018-02-15T01:14:32.067Z,101669.98
2018-02-15T01:16:57.827Z,101672.19
2018-02-15T01:19:23.577Z,101672.23
2018-02-15T01:21:49.343Z,101674.84
2018-02-15T01:24:15.115Z,101670.48
2018-02-15T01:26:40.886Z,101664.05
2018-02-15T01:29:06.650Z,101655.72
2018-02-15T01:31:32.419Z,101663.28
2018-02-15T01:33:58.189Z,101662.88
2018-02-15T01:36:23.956Z,101657.72
2018-02-15T01:38:49.707Z,101657.63
2018-02-15T01:41:15.461Z,101659.79
2018-02-15T01:43:41.208Z,101657.31
2018-02-15T01:46:06.988Z,101656.78
2018-02-15T01:48:32.733Z,101657.23
2018-02-15T01:50:58.489Z,101656.09
2018-02-15T01:53:24.246Z,101663.49
2018-02-15T01:55:50.008Z,101663.86
2018-02-15T01:58:15.779Z,101658.04
2018-02-15T02:00:41.552Z,101656.53
2018-02-15T02:03:07.320Z,101650.03
2018-02-15T02:05:33.091Z,101648.77
2018-02-15T02:07:58.848Z,101648.73
2018-02-15T02:10:24.615Z,101651.45
2018-02-15T02:12:50.386Z,101649.58
2018-02-15T02:15:16.147Z,101649.55
2018-02-15T02:17:41.936Z,101648.77
2018-02-15T02:20:07.689Z,101647.80
2018-02-15T02:22:33.458Z,101633.48
2018-02-15T02:24:59.222Z,101634.81
2018-02-15T02:27:24.976Z,101637.78
2018-02-15T02:29:50.747Z,101632.17
2018-02-15T02:32:16.505Z,101613.27
2018-02-15T02:34:42.270Z,101605.33
2018-02-15T02:37:08.032Z,101601.39
2018-02-15T02:39:33.813Z,101596.70
2018-02-15T02:41:59.584Z,101590.20
2018-02-15T02:44:25.347Z,101589.46
2018-02-15T02:46:51.100Z,101588.53
2018-02-15T02:49:16.867Z,101598.53
2018-02-15T02:51:42.622Z,101588.08
2018-02-15T02:54:08.372Z,101603.17
2018-02-15T02:56:34.130Z,101590.36
2018-02-15T02:58:59.909Z,101592.92
2018-02-15T03:01:25.670Z,101578.16
2018-02-15T03:03:51.419Z,101585.48
2018-02-15T03:06:17.173Z,101574.81
2018-02-15T03:08:42.926Z,101567.81
2018-02-15T03:11:08.692Z,101561.88
2018-02-15T03:13:34.447Z,101561.35
2018-02-15T03:16:00.218Z,101565.22
2018-02-15T03:18:25.962Z,101563.02
2018-02-15T03:20:51.739Z,101564.36
2018-02-15T03:23:17.493Z,101558.67
2018-02-15T03:25:43.255Z,101559.05
2018-02-15T03:28:09.007Z,101550.75
2018-02-15T03:30:34.771Z,101547.03
2018-02-15T03:33:00.511Z,101549.67
2018-02-15T03:35:26.274Z,101549.63
2018-02-15T03:37:52.023Z,101544.80
2018-02-15T03:40:17.799Z,101543.50
2018-02-15T03:42:43.551Z,101547.36
2018-02-15T03:45:09.378Z,101539.63
2018-02-15T03:47:35.126Z,101530.81
2018-02-15T03:50:00.887Z,101530.48
2018-02-15T03:52:26.642Z,101517.84
2018-02-15T03:54:52.423Z,101524.72
2018-02-15T03:57:18.173Z,101530.37
2018-02-15T03:59:43.919Z,101524.83
2018-02-15T04:02:09.683Z,101523.64
2018-02-15T04:04:35.431Z,101517.84
2018-02-15T04:07:01.195Z,101516.61
2018-02-15T04:09:26.948Z,101513.00
2018-02-15T04:11:52.710Z,101520.81
2018-02-15T04:14:18.450Z,101515.08
2018-02-15T04:16:44.211Z,101509.95
2018-02-15T04:19:09.958Z,101509.98
2018-02-15T04:21:35.722Z,101514.41
2018-02-15T04:24:01.467Z,101515.64
2018-02-15T04:26:27.234Z,101511.89
2018-02-15T04:28:52.986Z,101503.93
2018-02-15T04:31:18.744Z,101508.13
2018-02-15T04:33:44.547Z,101510.36
2018-02-15T04:36:10.312Z,101509.51
2018-02-15T04:38:36.077Z,101504.37
2018-02-15T04:41:01.872Z,101506.38
2018-02-15T04:43:27.639Z,101489.09
2018-02-15T04:45:53.395Z,101483.44
2018-02-15T04:48:19.166Z,101483.92
2018-02-15T04:50:44.915Z,101480.39
2018-02-15T04:53:10.687Z,101466.45
2018-02-15T04:55:36.453Z,101452.88
2018-02-15T04:58:02.214Z,101458.53
2018-02-15T05:00:27.975Z,101448.13
2018-02-15T05:02:53.753Z,101446.30
2018-02-15T05:05:19.507Z,101447.53
2018-02-15T05:07:45.272Z,101425.86
2018-02-15T05:10:11.030Z,101424.55
2018-02-15T05:12:36.796Z,101418.12
2018-02-15T05:15:02.567Z,101422.40
2018-02-15T05:17:28.335Z,101423.18
2018-02-15T05:19:54.078Z,101427.94
2018-02-15T05:22:19.846Z,101428.49
2018-02-15T05:24:45.610Z,101427.60
2018-02-15T05:27:11.366Z,101436.19
2018-02-15T05:29:37.130Z,101438.39
2018-02-15T05:32:02.907Z,101432.22
2018-02-15T05:34:28.654Z,101422.36
2018-02-15T05:36:54.410Z,101426.67
2018-02-15T05:39:20.175Z,101418.88
2018-02-15T05:41:45.931Z,101426.78
2018-02-15T05:44:11.699Z,101426.75
2018-02-15T05:46:37.452Z,101422.77
2018-02-15T05:49:03.223Z,101416.94
2018-02-15T05:51:28.971Z,101420.77
2018-02-15T05:53:54.739Z,101416.98
2018-02-15T05:56:20.533Z,101407.60
2018-02-15T05:58:46.279Z,101407.91
2018-02-15T06:01:12.040Z,101408.45
2018-02-15T06:03:37.807Z,101397.09
2018-02-15T06:06:03.561Z,101396.53
2018-02-15T06:08:29.327Z,101398.62
2018-02-15T06:10:55.084Z,101398.17
2018-02-15T06:13:20.850Z,101406.83
2018-02-15T06:15:46.607Z,101410.25
2018-02-15T06:18:12.364Z,101403.41
2018-02-15T06:20:38.123Z,101394.16
2018-02-15T06:23:03.878Z,101397.21
2018-02-15T06:25:29.637Z,101399.77
2018-02-15T06:27:55.388Z,101402.78
2018-02-15T06:30:21.154Z,101392.00
2018-02-15T06:32:46.915Z,101391.97
2018-02-15T06:35:12.666Z,101392.86
2018-02-15T06:37:38.417Z,101398.88
2018-02-15T06:40:04.184Z,101398.36
2018-02-15T06:42:29.942Z,101392.34
2018-02-15T06:44:55.714Z,101395.31
2018-02-15T06:47:21.467Z,101386.80
2018-02-15T06:49:47.230Z,101386.32
2018-02-15T06:52:12.970Z,101388.48
2018-02-15T06:54:38.750Z,101385.39
2018-02-15T06:57:04.494Z,101391.08
2018-02-15T06:59:30.258Z,101394.95
2018-02-15T07:01:56.011Z,101397.14
2018-02-15T07:04:21.779Z,101385.95
2018-02-15T07:06:47.522Z,101375.95
2018-02-15T07:09:13.281Z,101364.58
2018-02-15T07:11:39.038Z,101378.03
2018-02-15T07:14:04.795Z,101383.27
2018-02-15T07:16:30.564Z,101375.50
2018-02-15T07:18:56.326Z,101382.49
2018-02-15T07:21:22.098Z,101374.69
2018-02-15T07:23:47.852Z,101374.31
2018-02-15T07:26:13.622Z,101363.83
2018-02-15T07:28:39.382Z,101366.03
2018-02-15T07:31:05.146Z,101350.00
2018-02-15T07:33:30.907Z,101346.10
2018-02-15T07:35:56.679Z,101347.37
2018-02-15T07:38:22.431Z,101331.38
2018-02-15T07:40:48.213Z,101328.72
2018-02-15T07:43:13.956Z,101326.62
2018-02-15T07:45:39.722Z,101325.77
2018-02-15T07:48:05.483Z,101329.41
2018-02-15T07:50:31.268Z,101330.63
2018-02-15T07:52:57.030Z,101324.16
2018-02-15T07:55:22.819Z,101325.47
2018-02-15T07:57:48.585Z,101325.47
2018-02-15T08:00:14.331Z,101319.38
2018-02-15T08:02:40.094Z,101316.42
2018-02-15T08:05:05.849Z,101310.30
2018-02-15T08:07:31.630Z,101313.92
2018-02-15T08:09:57.374Z,101315.84
2018-02-15T08:12:23.147Z,101308.95
2018-02-15T08:14:48.901Z,101302.98
2018-02-15T08:17:14.682Z,101300.77
2018-02-15T08:19:40.466Z,101309.05
2018-02-15T08:22:06.263Z,101309.97
2018-02-15T08:24:32.034Z,101300.45
2018-02-15T08:26:57.807Z,101300.03
2018-02-15T08:29:23.566Z,101300.95
2018-02-15T08:31:49.346Z,101294.92
2018-02-15T08:34:15.135Z,101291.69
2018-02-15T08:36:40.881Z,101293.75
2018-02-15T08:39:06.646Z,101297.59
2018-02-15T08:41:32.408Z,101285.17
2018-02-15T08:43:58.174Z,101281.59
2018-02-15T08:46:23.917Z,101272.95
2018-02-15T08:48:49.679Z,101273.05
2018-02-15T08:51:15.430Z,101272.06
2018-02-15T08:53:41.187Z,101287.20
2018-02-15T08:56:06.938Z,101278.51
2018-02-15T08:58:32.706Z,101273.43
2018-02-15T09:00:58.453Z,101261.80
2018-02-15T09:03:24.223Z,101257.98
2018-02-15T09:05:49.974Z,101247.48
2018-02-15T09:08:15.742Z,101254.75
2018-02-15T09:10:41.485Z,101254.78
2018-02-15T09:13:07.254Z,101251.83
2018-02-15T09:15:32.998Z,101260.59
2018-02-15T09:17:58.764Z,101249.38
2018-02-15T09:20:24.521Z,101248.90
2018-02-15T09:22:50.281Z,101241.95
2018-02-15T09:25:16.038Z,101258.13
2018-02-15T09:27:41.787Z,101251.66
2018-02-15T09:30:07.565Z,101249.52
2018-02-15T09:32:33.318Z,101254.28
2018-02-15T09:34:59.093Z,101244.80
2018-02-15T09:37:24.849Z,101235.30
2018-02-15T09:39:50.623Z,101233.22
2018-02-15T09:42:16.382Z,101223.25
2018-02-15T09:44:42.143Z,101210.41
2018-02-15T09:47:07.898Z,101214.34
2018-02-15T09:49:33.649Z,101211.77
2018-02-15T09:51:59.403Z,101216.78
2018-02-15T09:54:25.214Z,101211.69
2018-02-15T09:56:50.947Z,101204.33
2018-02-15T09:59:16.719Z,101210.53
2018-02-15T10:01:42.458Z,101188.74
2018-02-15T10:04:08.234Z,101175.73
2018-02-15T10:06:33.994Z,101195.63
2018-02-15T10:08:59.750Z,101173.08
2018-02-15T10:11:25.507Z,101176.95
2018-02-15T10:13:51.293Z,101161.80
2018-02-15T10:16:17.051Z,101182.34
2018-02-15T10:18:42.808Z,101191.98
2018-02-15T10:21:08.582Z,101181.83
2018-02-15T10:23:34.334Z,101187.55
2018-02-15T10:26:00.098Z,101177.06
2018-02-15T10:28:25.862Z,101178.78
2018-02-15T10:30:51.623Z,101181.34
2018-02-15T10:33:17.366Z,101176.18
2018-02-15T10:35:43.125Z,101168.92
2018-02-15T10:38:08.886Z,101180.73
2018-02-15T10:40:34.657Z,101179.13
2018-02-15T10:43:00.402Z,101174.84
2018-02-15T10:45:26.166Z,101176.99
2018-02-15T10:47:51.923Z,101183.58
2018-02-15T10:50:17.688Z,101180.41
2018-02-15T10:52:43.447Z,101179.61
2018-02-15T10:55:09.220Z,101171.68
2018-02-15T10:57:34.999Z,101169.31
2018-02-15T11:00:00.755Z,101173.84
2018-02-15T11:02:26.534Z,101165.41
2018-02-15T11:04:58.563Z,101169.98
2018-02-15T11:07:24.362Z,101168.66
2018-02-15T11:09:50.083Z,101166.98
2018-02-15T11:12:15.855Z,101166.09
2018-02-15T11:14:41.610Z,101165.91
2018-02-15T11:17:07.396Z,101164.38
2018-02-15T11:19:33.151Z,101153.62
2018-02-15T11:21:58.922Z,101148.81
2018-02-15T11:24:24.684Z,101146.73
2018-02-15T11:26:50.447Z,101156.58
2018-02-15T11:29:16.217Z,101147.91
2018-02-15T11:31:42.090Z,101151.89
2018-02-15T11:34:07.750Z,101145.50
2018-02-15T11:36:33.557Z,101151.09
2018-02-15T11:38:59.342Z,101149.81
2018-02-15T11:41:25.097Z,101138.37
2018-02-15T11:43:50.867Z,101142.23
2018-02-15T11:46:16.639Z,101139.27
2018-02-15T11:48:42.404Z,101135.97
2018-02-15T11:51:08.359Z,101132.17
2018-02-15T11:53:34.182Z,101139.16
2018-02-15T11:56:02.100Z,101132.34
2018-02-15T11:58:27.866Z,101132.03
2018-02-15T12:00:53.627Z,101137.63
2018-02-15T12:03:19.399Z,101137.55
2018-02-15T12:05:45.159Z,101134.11
2018-02-15T12:08:10.928Z,101135.88
2018-02-15T12:10:36.714Z,101144.25
2018-02-15T12:13:02.499Z,101145.37
2018-02-15T12:15:28.266Z,101143.10
2018-02-15T12:17:54.029Z,101146.54
2018-02-15T12:20:19.774Z,101144.83
2018-02-15T12:22:45.555Z,101153.57
2018-02-15T12:25:11.308Z,101154.04
2018-02-15T12:27:37.079Z,101146.25
2018-02-15T12:30:02.836Z,101141.07
2018-02-15T12:32:28.618Z,101131.16
2018-02-15T12:34:54.371Z,101134.24
2018-02-15T12:37:20.126Z,101126.50
2018-02-15T12:39:45.894Z,101130.75
2018-02-15T12:42:11.643Z,101130.27
2018-02-15T12:44:37.410Z,101125.05
2018-02-15T12:47:03.171Z,101119.89
2018-02-15T12:49:28.946Z,101112.03
2018-02-15T12:51:54.738Z,101112.88
2018-02-15T12:54:20.462Z,101106.38
2018-02-15T12:56:46.233Z,101105.55
2018-02-15T12:59:12.011Z,101107.66
2018-02-15T13:01:37.783Z,101116.30
2018-02-15T13:04:03.554Z,101118.91
2018-02-15T13:06:29.306Z,101104.12
2018-02-15T13:08:55.070Z,101099.38
2018-02-15T13:11:20.830Z,101097.63
2018-02-15T13:13:46.707Z,101088.93
2018-02-15T13:16:24.962Z,101094.19
2018-02-15T13:19:03.242Z,101094.68
2018-02-15T13:21:29.021Z,101100.20
2018-02-15T13:23:54.782Z,101103.23
2018-02-15T13:26:20.539Z,101099.40
2018-02-15T13:28:46.311Z,101095.47
2018-02-15T13:31:12.068Z,101101.56
2018-02-15T13:33:38.327Z,101114.22
2018-02-15T13:36:04.114Z,101106.45
2018-02-15T13:38:29.890Z,101109.06
2018-02-15T13:40:55.662Z,101108.59
2018-02-15T13:43:21.428Z,101110.34
2018-02-15T13:45:47.203Z,101110.73
2018-02-15T13:48:12.955Z,101105.98
2018-02-15T13:50:38.725Z,101105.59
2018-02-15T13:53:04.488Z,101116.45
2018-02-15T13:55:30.262Z,101109.50
2018-02-15T13:57:56.024Z,101103.48
2018-02-15T14:00:21.799Z,101104.83
2018-02-15T14:02:47.553Z,101106.16
2018-02-15T14:05:13.321Z,101103.06
2018-02-15T14:07:39.079Z,101091.78
2018-02-15T14:10:04.848Z,101093.08
2018-02-15T14:12:30.604Z,101080.87
2018-02-15T14:14:56.383Z,101081.34
2018-02-15T14:17:22.162Z,101078.73
2018-02-15T14:19:47.937Z,101071.39
2018-02-15T14:24:46.110Z,101070.87
2018-02-15T14:27:11.866Z,101059.52
2018-02-15T14:29:37.635Z,101058.22
2018-02-15T14:32:03.404Z,101061.22
2018-02-15T14:34:29.167Z,101055.13
2018-02-15T14:36:54.950Z,101049.02
2018-02-15T14:39:20.694Z,101037.68
2018-02-15T14:41:46.459Z,101035.55
2018-02-15T14:44:12.206Z,101031.17
2018-02-15T14:46:37.979Z,101032.50
2018-02-15T14:49:03.736Z,101037.73
2018-02-15T14:51:29.503Z,101027.70
2018-02-15T14:53:55.255Z,101040.73
2018-02-15T14:56:21.019Z,101033.73
2018-02-15T14:58:46.771Z,101029.87
2018-02-15T15:01:12.544Z,101035.03
2018-02-15T15:03:38.290Z,101030.32
2018-02-15T15:06:04.060Z,101032.90
2018-02-15T15:08:29.807Z,101044.61
2018-02-15T15:10:55.588Z,101039.82
2018-02-15T15:13:21.337Z,101046.36
2018-02-15T15:15:47.069Z,101051.17
2018-02-15T15:18:12.818Z,101052.05
2018-02-15T15:20:38.586Z,101044.66
2018-02-15T15:23:05.146Z,101040.35
2018-02-15T15:25:30.896Z,101050.41
2018-02-15T15:27:56.655Z,101045.22
2018-02-15T15:30:22.410Z,101049.08
2018-02-15T15:32:48.178Z,101046.94
2018-02-15T15:35:13.927Z,101040.90
2018-02-15T15:37:39.690Z,101046.56
2018-02-15T15:40:05.450Z,101057.43
2018-02-15T15:42:31.214Z,101052.17
2018-02-15T15:44:56.975Z,101062.61
2018-02-15T15:47:22.754Z,101058.70
2018-02-15T15:49:48.515Z,101065.66
2018-02-15T15:52:14.287Z,101053.11
2018-02-15T15:54:40.058Z,101056.16
2018-02-15T15:57:05.818Z,101057.04
2018-02-15T15:59:31.579Z,101055.28
2018-02-15T16:01:57.371Z,101046.59
2018-02-15T16:04:23.110Z,101048.29
2018-02-15T16:06:48.858Z,101052.68
2018-02-15T16:09:14.656Z,101054.43
2018-02-15T16:11:40.423Z,101062.69
2018-02-15T16:14:06.191Z,101054.33
2018-02-15T16:16:31.940Z,101050.42
2018-02-15T16:18:57.702Z,101049.98
2018-02-15T16:21:23.462Z,101048.20
2018-02-15T16:23:49.232Z,101043.50
2018-02-15T16:26:14.981Z,101044.27
2018-02-15T16:28:40.754Z,101042.06
2018-02-15T16:31:06.498Z,101038.67
2018-02-15T16:33:32.252Z,101036.92
2018-02-15T16:35:58.037Z,101038.64
2018-02-15T16:38:23.840Z,101032.50
2018-02-15T16:40:49.595Z,101034.69
2018-02-15T16:43:15.366Z,101033.41
2018-02-15T16:45:41.105Z,101030.78
2018-02-15T16:48:06.858Z,101035.56
2018-02-15T16:50:32.614Z,101038.20
2018-02-15T16:52:58.383Z,101033.87
2018-02-15T16:55:24.153Z,101031.27
2018-02-15T16:57:49.909Z,101020.84
2018-02-15T17:00:15.675Z,101023.95
2018-02-15T17:02:41.449Z,101037.82
2018-02-15T17:05:07.217Z,101046.52
2018-02-15T17:07:32.971Z,101044.34
2018-02-15T17:09:58.737Z,101046.55
2018-02-15T17:12:24.487Z,101053.91
2018-02-15T17:14:50.262Z,101058.27
2018-02-15T17:17:16.013Z,101047.85
2018-02-15T17:19:41.769Z,101050.87
2018-02-15T17:22:07.525Z,101055.27
2018-02-15T17:24:33.293Z,101056.08
2018-02-15T17:26:59.046Z,101068.73
2018-02-15T17:29:24.810Z,101066.98
2018-02-15T17:31:50.569Z,101067.87
2018-02-15T17:34:16.327Z,101068.64
2018-02-15T17:36:42.086Z,101064.73
2018-02-15T17:39:07.859Z,101063.86
2018-02-15T17:41:33.604Z,101063.50
2018-02-15T17:43:59.390Z,101071.66
2018-02-15T17:46:25.151Z,101069.52
2018-02-15T17:48:50.923Z,101072.17
2018-02-15T17:51:16.698Z,101072.52
2018-02-15T17:53:42.463Z,101069.45
2018-02-15T17:56:08.239Z,101073.80
2018-02-15T17:58:33.993Z,101082.84
2018-02-15T18:00:59.780Z,101080.60
2018-02-15T18:03:25.535Z,101076.26
2018-02-15T18:05:51.300Z,101071.03
2018-02-15T18:08:17.058Z,101072.72
2018-02-15T18:10:42.824Z,101073.61
2018-02-15T18:13:08.594Z,101077.95
2018-02-15T18:15:34.351Z,101066.25
2018-02-15T18:18:00.096Z,101073.19
2018-02-15T18:20:25.862Z,101070.61
2018-02-15T18:22:51.619Z,101070.61
2018-02-15T18:25:17.386Z,101070.19
2018-02-15T18:27:43.147Z,101068.02
2018-02-15T18:30:08.926Z,101067.22
2018-02-15T18:32:34.677Z,101064.17
2018-02-15T18:35:00.434Z,101065.03
2018-02-15T18:37:26.224Z,101065.50
2018-02-15T18:39:51.987Z,101063.77
2018-02-15T18:42:17.754Z,101070.70
2018-02-15T18:44:43.527Z,101067.28
2018-02-15T18:47:09.309Z,101068.20
2018-02-15T18:49:35.063Z,101069.03
2018-02-15T18:52:00.846Z,101067.78
2018-02-15T18:54:26.614Z,101066.06
2018-02-15T18:56:52.383Z,101068.27
2018-02-15T18:59:18.139Z,101075.23
2018-02-15T19:01:43.923Z,101075.22
2018-02-15T19:04:09.682Z,101084.85
2018-02-15T19:06:35.450Z,101088.76
2018-02-15T19:09:01.207Z,101084.83
2018-02-15T19:11:26.998Z,101090.09
2018-02-15T19:13:52.767Z,101092.39
2018-02-15T19:16:18.540Z,101091.53
2018-02-15T19:18:44.296Z,101095.88
2018-02-15T19:21:10.071Z,101091.53
2018-02-15T19:23:35.837Z,101096.30
2018-02-15T19:26:01.607Z,101097.64
2018-02-15T19:28:27.388Z,101093.74
2018-02-15T19:30:53.166Z,101088.99
2018-02-15T19:33:18.953Z,101094.25
2018-02-15T19:35:44.750Z,101094.69
2018-02-15T19:38:10.529Z,101091.65
2018-02-15T19:40:36.306Z,101099.47
2018-02-15T19:43:02.094Z,101096.85
2018-02-15T19:45:27.853Z,101092.56
2018-02-15T19:47:53.624Z,101090.52
2018-02-15T19:50:19.406Z,101090.96
2018-02-15T19:52:45.187Z,101092.66
2018-02-15T19:55:10.951Z,101100.45
2018-02-15T19:57:36.742Z,101104.41
2018-02-15T20:00:02.520Z,101106.55
2018-02-15T20:02:28.346Z,101115.28
2018-02-15T20:04:54.134Z,101116.95
2018-02-15T20:07:19.926Z,101116.16
2018-02-15T20:09:45.683Z,101111.81
2018-02-15T20:12:11.463Z,101114.88
2018-02-15T20:14:37.241Z,101112.72
2018-02-15T20:17:03.006Z,101115.73
2018-02-15T20:19:28.781Z,101115.77
2018-02-15T20:21:54.548Z,101119.25
2018-02-15T20:24:20.318Z,101122.80
2018-02-15T20:26:52.243Z,101127.16
2018-02-15T20:29:18.069Z,101121.95
2018-02-15T20:31:43.830Z,101131.56
2018-02-15T20:34:09.616Z,101131.12
2018-02-15T20:36:35.370Z,101129.39
2018-02-15T20:39:07.338Z,101128.18
2018-02-15T20:41:33.108Z,101127.74
2018-02-15T20:43:58.884Z,101124.77
2018-02-15T20:46:24.646Z,101122.23
2018-02-15T20:48:50.427Z,101127.89
2018-02-15T20:54:31.959Z,101132.23
2018-02-15T20:56:57.727Z,101137.49
2018-02-15T20:59:23.518Z,101139.33
2018-02-15T21:01:49.286Z,101144.95
2018-02-15T21:04:15.056Z,101144.95
2018-02-15T21:06:40.830Z,101152.37
2018-02-15T21:09:06.602Z,101150.66
2018-02-15T21:11:32.346Z,101153.76
2018-02-15T21:13:58.090Z,101162.41
2018-02-15T21:16:23.846Z,101165.09
2018-02-15T21:18:49.603Z,101166.44
2018-02-15T21:21:15.391Z,101171.68
2018-02-15T21:23:41.142Z,101168.23
2018-02-15T21:26:06.907Z,101160.49
2018-02-15T21:28:32.676Z,101165.31
2018-02-15T21:30:58.430Z,101163.66
2018-02-15T21:33:24.203Z,101167.16
2018-02-15T21:35:49.966Z,101159.36
2018-02-15T21:38:15.731Z,101162.87
2018-02-15T21:40:41.506Z,101165.05
2018-02-15T21:43:07.292Z,101174.27
2018-02-15T21:45:33.072Z,101180.61
2018-02-15T21:47:58.830Z,101186.04
2018-02-15T21:50:24.623Z,101193.00
2018-02-15T21:52:50.383Z,101185.13
2018-02-15T21:55:16.167Z,101192.57
2018-02-15T21:57:41.934Z,101195.23
2018-02-15T22:00:07.735Z,101194.83
2018-02-15T22:02:33.518Z,101193.53
2018-02-15T22:04:59.285Z,101199.23
2018-02-15T22:07:25.055Z,101199.17
2018-02-15T22:09:50.844Z,101204.85
2018-02-15T22:12:16.627Z,101206.98
2018-02-15T22:14:42.390Z,101204.97
2018-02-15T22:17:08.171Z,101206.69
2018-02-15T22:19:33.931Z,101207.56
2018-02-15T22:21:59.722Z,101213.72
2018-02-15T22:24:25.478Z,101208.09
2018-02-15T22:26:51.246Z,101208.48
2018-02-15T22:29:17.023Z,101203.27
2018-02-15T22:31:42.795Z,101210.31
2018-02-15T22:34:08.555Z,101225.62
2018-02-15T22:36:34.348Z,101232.14
2018-02-15T22:39:00.100Z,101231.68
2018-02-15T22:41:25.876Z,101227.83
2018-02-15T22:43:51.647Z,101226.97
2018-02-15T22:46:17.427Z,101232.16
2018-02-15T22:48:43.201Z,101231.33
2018-02-15T22:51:08.979Z,101237.05
2018-02-15T22:53:34.747Z,101233.58
2018-02-15T22:56:00.540Z,101243.11
2018-02-15T22:58:26.314Z,101252.20
2018-02-15T23:00:52.109Z,101249.98
2018-02-15T23:03:17.872Z,101250.37
2018-02-15T23:05:43.639Z,101260.30
2018-02-15T23:08:09.413Z,101264.66
2018-02-15T23:10:35.174Z,101266.41
2018-02-15T23:13:00.958Z,101260.77
2018-02-15T23:15:26.719Z,101262.09
2018-02-15T23:17:52.486Z,101255.13
2018-02-15T23:20:18.247Z,101262.92
2018-02-15T23:22:44.027Z,101256.00
2018-02-15T23:25:09.790Z,101270.72
2018-02-15T23:27:35.563Z,101274.92
2018-02-15T23:30:01.312Z,101275.84
2018-02-15T23:32:27.079Z,101278.02
2018-02-15T23:34:52.839Z,101283.63
2018-02-15T23:37:18.606Z,101285.64
2018-02-15T23:39:44.364Z,101290.91
2018-02-15T23:42:10.128Z,101294.32
2018-02-15T23:44:35.873Z,101294.70
2018-02-15T23:47:01.644Z,101296.35
2018-02-15T23:49:27.404Z,101299.27
2018-02-15T23:51:53.166Z,101294.91
2018-02-15T23:54:18.923Z,101297.35
2018-02-15T23:56:44.693Z,101303.94
2018-02-15T23:59:10.448Z,101307.81
